Latest Weather Observations for Pallamana

IDS60801

Issued at 4:02 am CST Thursday 29 September 2016 (issued every 30 minutes, with the page automatically refreshed every 10 minutes)

About weather observations | Map of weather stations | Latest weather observations for SA | Other Formats
Station Details ID: 024584 Name: PALLAMANA AERODROME Lat: -35.06 Lon: 139.23 Height: 45.0 m
Data from the previous 72 hours. | See also: Recent months at Pallamana
Date/Time
CST
Temp
°C
App
Temp
°C
Dew
Point
°C
Rel
Hum
%
Delta-T
°C
Wind Press
QNH
hPa
Press
MSL
hPa
Rain since
9am
mm
Dir  Spd
km/h
Gust
km/h
Spd
kts
Gust
kts
29/04:00am 8.2 1.3 4.4 77 1.7 N 30 43 16 23 985.1 985.1 21.8
29/03:30am 8.2 1.0 5.1 81 1.4 N 32 46 17 25 985.3 985.3 21.8
29/03:00am 7.8 1.3 4.7 81 1.4 N 28 46 15 25 986.2 986.2 21.8
29/02:30am 8.3 0.0 4.2 75 1.8 NNW 37 56 20 30 986.9 986.9 21.8
29/02:07am 8.1 0.8 4.5 78 1.6 NNW 32 50 17 27 987.7 987.7 21.8
29/02:00am 8.0 0.7 4.6 79 1.5 NNW 32 43 17 23 987.9 987.9 21.8
29/01:30am 7.7 0.3 4.8 82 1.3 NNW 33 46 18 25 989.0 988.9 21.8
29/01:00am 8.8 0.0 3.8 71 2.2 NNW 39 63 21 34 989.3 989.2 21.4
29/12:30am 9.2 -0.2 4.5 72 2.1 NW 43 63 23 34 989.7 989.6 21.4
29/12:04am 9.6 1.0 4.5 70 2.3 NW 39 57 21 31 990.2 990.1 21.4
29/12:00am 9.5 1.3 4.9 73 2.1 NW 37 54 20 29 990.3 990.2 21.4
 
Date/Time
CST
Temp
°C
App
Temp
°C
Dew
Point
°C
Rel
Hum
%
Delta-T
°C
Wind Press
QNH
hPa
Press
MSL
hPa
Rain since
9am
mm
Dir  Spd
km/h
Gust
km/h
Spd
kts
Gust
kts
28/11:37pm 9.8 2.7 5.5 74 2.0 NW 32 50 17 27 990.9 990.8 21.4
28/11:30pm 10.0 3.3 5.5 73 2.1 NW 30 46 16 25 991.0 990.9 21.4
28/11:00pm 10.1 4.8 6.7 79 1.6 NW 24 35 13 19 991.4 991.3 21.4
28/10:30pm 10.8 5.7 5.9 72 2.3 NW 22 30 12 16 991.7 991.6 21.2
28/10:00pm 10.4 6.3 6.2 75 2.0 WNW 17 24 9 13 991.8 991.7 21.2
28/09:30pm 10.4 6.3 7.7 83 1.3 WNW 19 26 10 14 991.8 991.7 21.2
28/09:00pm 11.1 5.8 6.7 74 2.1 WNW 24 39 13 21 991.7 991.6 21.0
28/08:30pm 11.1 6.0 7.6 79 1.7 NW 24 35 13 19 991.3 991.2 21.0
28/08:00pm 11.9 7.9 8.1 77 1.9 WNW 19 28 10 15 990.9 990.8 21.0
28/07:30pm 11.8 8.6 8.4 80 1.7 NW 15 20 8 11 991.3 991.2 21.0
28/07:07pm 12.6 6.0 8.4 75 2.1 WNW 33 52 18 28 990.3 990.2 21.0
28/07:00pm 12.6 5.7 8.9 78 1.9 WNW 35 48 19 26 990.2 990.1 21.0
28/06:30pm 14.1 6.7 9.9 76 2.2 WNW 39 63 21 34 989.1 989.0 21.0
28/06:26pm 14.3 7.8 10.5 78 2.0 WNW 35 54 19 29 989.3 989.2 21.0
28/06:00pm 13.9 10.1 12.4 91 0.8 NW 24 35 13 19 989.2 989.1 21.0
28/05:56pm 13.8 9.3 12.5 92 0.7 NW 28 46 15 25 989.3 989.2 21.0
28/05:46pm 14.3 10.3 12.9 91 0.8 NNE 26 41 14 22 989.1 989.0 18.4
28/05:30pm 14.0 8.6 12.7 92 0.7 NE 33 43 18 23 986.8 986.8 18.2
28/05:11pm 13.7 8.4 12.4 92 0.7 NE 32 50 17 27 987.4 987.4 17.8
28/05:00pm 13.6 9.0 12.3 92 0.7 ENE 28 44 15 24 987.1 987.1 17.2
28/04:57pm 13.6 10.1 12.3 92 0.7 NE 22 37 12 20 987.5 987.5 17.0
28/04:30pm 13.5 11.3 12.0 91 0.8 N 15 20 8 11 990.0 989.9 13.8
28/04:00pm 13.5 9.4 11.3 86 1.2 ENE 24 32 13 17 989.3 989.2 12.2
28/03:59pm 13.5 9.3 11.1 85 1.3 ENE 24 32 13 17 989.5 989.4 12.2
28/03:30pm 13.5 9.2 10.9 84 1.4 NE 24 33 13 18 991.6 991.5 12.2
28/03:00pm 13.2 8.6 10.9 86 1.2 ENE 26 33 14 18 992.9 992.9 12.2
28/02:30pm 12.7 8.1 11.0 89 0.9 ENE 26 35 14 19 994.8 994.8 12.2
28/02:00pm 12.0 9.1 10.9 93 0.6 ENE 17 26 9 14 996.6 996.6 12.2
28/01:55pm 12.0 9.1 10.9 93 0.6 NE 17 24 9 13 996.7 996.7 12.2
28/01:30pm 11.7 9.5 10.7 94 0.5 NE 13 17 7 9 998.2 998.2 10.4
28/01:23pm 11.7 9.8 10.5 92 0.6 NE 11 17 6 9 998.8 998.8 9.4
28/01:10pm 11.3 10.0 10.1 92 0.6 NNE 7 13 4 7 999.3 999.3 8.8
28/01:00pm 11.3 8.9 9.9 91 0.7 N 13 17 7 9 999.7 999.7 8.0
28/12:56pm 11.3 8.5 9.9 91 0.7 N 15 20 8 11 999.8 999.8 7.6
28/12:30pm 11.7 7.5 9.7 87 1.0 N 22 32 12 17 1001.2 1001.2 3.8
28/12:16pm 12.5 8.5 9.2 80 1.7 NNW 20 30 11 16 1001.4 1001.4 2.0
28/12:00pm 13.7 9.3 8.8 72 2.5 N 22 28 12 15 1001.5 1001.5 0.4
28/11:30am 16.7 9.3 3.9 42 6.0 NNE 32 39 17 21 1000.0 1000.0 0.0
28/11:00am 17.0 8.8 4.9 44 5.8 NNE 37 50 20 27 1000.8 1000.8 0.0
28/10:36am 16.8 8.1 4.1 43 6.0 NNE 39 57 21 31 1002.1 1002.1 0.0
28/10:30am 17.2 8.9 4.4 42 6.1 NNE 37 52 20 28 1002.4 1002.4 0.0
28/10:00am 16.7 10.0 5.6 48 5.4 NNE 30 41 16 22 1003.5 1003.5 0.0
28/09:30am 15.2 9.1 6.4 55 4.3 NNE 28 37 15 20 1005.1 1005.1 0.0
28/09:00am 13.3 8.4 6.9 65 3.1 NE 22 30 12 16 1006.0 1006.0 0.0
28/08:30am 11.7 6.4 6.9 72 2.3 NNE 24 30 13 16 1006.9 1006.9 0.0
28/08:00am 10.4 6.0 7.5 82 1.4 NNE 20 26 11 14 1007.3 1007.3 0.0
28/07:30am 8.4 6.6 7.8 96 0.3 NNE 7 15 4 8 1007.7 1007.7 0.0
28/07:00am 5.3 3.4 4.8 97 0.2 N 4 7 2 4 1008.2 1008.2 0.0
28/06:30am 3.6 1.0 3.1 97 0.2 N 6 9 3 5 1008.6 1008.6 0.0
28/06:00am 2.8 0.1 2.5 98 0.1 N 6 7 3 4 1009.0 1009.0 0.0
28/05:30am 3.1 0.3 2.9 99 0.1 N 7 7 4 4 1009.1 1009.1 0.0
28/05:00am 3.2 0.3 2.7 96 0.2 NNW 7 9 4 5 1009.3 1009.3 0.0
28/04:30am 2.7 -0.3 2.2 96 0.2 NNW 7 9 4 5 1009.7 1009.7 0.0
28/04:00am 2.8 -0.2 2.0 94 0.3 N 7 9 4 5 1010.0 1010.0 0.0
28/03:30am 3.4 0.6 2.9 97 0.2 NNW 7 9 4 5 1010.2 1010.2 0.0
28/03:00am 2.1 -1.3 2.1 100 0.0 NNW 9 9 5 5 1010.7 1010.8 0.0
28/02:30am 3.1 0.2 2.6 96 0.2 NNW 7 9 4 5 1011.0 1011.1 0.0
28/02:00am 3.1 0.1 2.1 93 0.4 NNW 7 9 4 5 1011.7 1011.7 0.0
28/01:30am 3.0 0.0 2.0 93 0.4 N 7 9 4 5 1012.0 1012.0 0.0
28/01:00am 2.2 -0.7 1.4 94 0.3 NNE 6 9 3 5 1012.4 1012.4 0.0
28/12:30am 2.7 -0.6 2.2 96 0.2 NNW 9 11 5 6 1012.6 1012.6 0.0
28/12:00am 2.7 -0.2 1.7 93 0.4 N 6 7 3 4 1012.8 1012.8 0.0
 
Date/Time
CST
Temp
°C
App
Temp
°C
Dew
Point
°C
Rel
Hum
%
Delta-T
°C
Wind Press
QNH
hPa
Press
MSL
hPa
Rain since
9am
mm
Dir  Spd
km/h
Gust
km/h
Spd
kts
Gust
kts
27/11:30pm 3.9 0.8 3.7 99 0.1 NNW 9 11 5 6 1013.0 1013.0 0.0
27/11:00pm 3.9 1.0 2.7 92 0.5 NW 7 9 4 5 1013.3 1013.3 0.0
27/10:30pm 5.5 3.0 4.6 94 0.4 NW 7 9 4 5 1013.7 1013.7 0.0
27/10:00pm 5.0 1.9 3.8 92 0.5 N 9 11 5 6 1013.8 1013.8 0.0
27/09:30pm 5.0 2.3 3.6 91 0.6 NW 7 9 4 5 1013.9 1013.9 0.0
27/09:00pm 6.6 5.2 3.8 82 1.2 CALM 0 2 0 1 1014.1 1014.1 0.0
27/08:30pm 9.6 6.0 4.9 72 2.1 WNW 13 15 7 8 1014.2 1014.2 0.0
27/08:00pm 10.4 7.2 5.1 69 2.4 W 11 13 6 7 1014.3 1014.3 0.0
27/07:30pm 10.3 7.2 5.5 72 2.2 W 11 13 6 7 1014.2 1014.2 0.0
27/07:00pm 11.1 8.3 5.2 67 2.7 WNW 9 11 5 6 1014.3 1014.3 0.0
27/06:30pm 12.3 9.3 5.9 65 3.0 WNW 11 13 6 7 1014.1 1014.1 0.0
27/06:00pm 13.8 12.0 7.0 63 3.3 W 6 9 3 5 1014.2 1014.2 0.0
27/05:30pm 15.5 13.3 6.0 53 4.6 NW 7 11 4 6 1014.0 1014.0 0.0
27/05:00pm 15.7 12.5 4.9 48 5.1 NW 11 15 6 8 1013.9 1013.9 0.0
27/04:30pm 16.1 11.8 5.2 48 5.2 WNW 17 22 9 12 1014.1 1014.1 0.0
27/04:00pm 16.1 11.9 5.5 49 5.1 WNW 17 26 9 14 1014.2 1014.2 0.0
27/03:30pm 15.8 11.2 5.6 50 4.9 WNW 19 26 10 14 1014.2 1014.2 0.0
27/03:00pm 15.4 10.1 4.8 49 5.0 WNW 22 32 12 17 1014.5 1014.5 0.0
27/02:30pm 16.0 11.0 4.8 47 5.3 WNW 20 26 11 14 1014.4 1014.4 0.0
27/02:00pm 16.2 11.8 4.5 45 5.5 WNW 17 22 9 12 1014.4 1014.4 0.0
27/01:30pm 15.9 11.8 4.1 45 5.5 W 15 19 8 10 1014.5 1014.5 0.0
27/01:00pm 15.4 11.4 4.8 49 5.0 WSW 15 22 8 12 1014.7 1014.7 0.0
27/12:30pm 15.6 12.4 5.0 49 5.0 WNW 11 17 6 9 1015.3 1015.3 0.0
27/12:00pm 16.5 12.1 4.9 46 5.5 NW 17 26 9 14 1015.4 1015.4 0.0
27/11:30am 16.0 11.2 4.5 46 5.4 NW 19 28 10 15 1015.7 1015.7 0.0
27/11:00am 15.0 10.4 3.9 47 5.1 WNW 17 26 9 14 1015.9 1015.9 0.0
27/10:30am 14.6 10.1 4.2 49 4.8 W 17 26 9 14 1016.2 1016.2 0.0
27/10:00am 15.1 10.4 5.1 51 4.7 W 19 28 10 15 1016.4 1016.4 0.0
27/09:30am 13.8 9.3 4.2 52 4.4 WNW 17 26 9 14 1016.5 1016.5 0.0
27/09:00am 13.2 9.5 6.5 64 3.2 W 15 24 8 13 1016.5 1016.5 0.0
27/08:30am 13.3 10.0 6.6 64 3.2 WNW 13 20 7 11 1016.6 1016.6 0.0
27/08:00am 12.2 9.5 7.2 71 2.4 WNW 11 15 6 8 1016.3 1016.3 0.0
27/07:30am 10.3 7.9 6.9 79 1.6 WNW 9 13 5 7 1016.0 1016.0 0.0
27/07:00am 8.4 5.4 6.2 86 1.0 WNW 11 13 6 7 1015.7 1015.7 0.0
27/06:30am 6.5 2.8 4.7 88 0.8 WNW 13 15 7 8 1015.5 1015.5 0.0
27/06:00am 4.6 0.6 2.9 89 0.7 NW 13 15 7 8 1015.4 1015.4 0.0
27/05:30am 4.8 1.2 3.1 89 0.7 WNW 11 15 6 8 1015.0 1015.0 0.0
27/05:00am 6.6 2.9 4.3 85 1.0 WNW 13 15 7 8 1014.7 1014.7 0.0
27/04:30am 6.9 2.8 4.6 85 1.0 WNW 15 17 8 9 1014.4 1014.4 0.0
27/04:00am 6.8 2.7 4.3 84 1.1 W 15 17 8 9 1014.3 1014.3 0.0
27/03:30am 6.2 2.5 4.3 88 0.8 W 13 17 7 9 1014.2 1014.2 0.0
27/03:00am 6.6 2.9 4.5 86 0.9 WNW 13 15 7 8 1014.1 1014.1 0.0
27/02:30am 6.8 3.6 5.0 88 0.8 WNW 11 15 6 8 1014.3 1014.3 0.0
27/02:00am 3.3 1.3 2.5 94 0.3 S 2 9 1 5 1014.4 1014.4 0.0
27/01:30am 3.0 0.2 2.0 93 0.4 S 6 7 3 4 1014.4 1014.4 0.0
27/01:00am 3.7 0.8 2.5 92 0.5 S 7 11 4 6 1014.4 1014.4 0.0
27/12:30am 5.4 2.9 3.5 87 0.8 SW 6 7 3 4 1014.8 1014.8 0.0
27/12:00am 7.9 5.1 5.0 82 1.3 W 9 13 5 7 1014.7 1014.7 0.0
 
Date/Time
CST
Temp
°C
App
Temp
°C
Dew
Point
°C
Rel
Hum
%
Delta-T
°C
Wind Press
QNH
hPa
Press
MSL
hPa
Rain since
9am
mm
Dir  Spd
km/h
Gust
km/h
Spd
kts
Gust
kts
26/11:30pm 8.2 4.6 4.8 79 1.5 W 13 17 7 9 1014.9 1014.9 0.0
26/11:00pm 8.2 4.6 5.1 81 1.4 W 13 17 7 9 1014.8 1014.8 0.0
26/10:30pm 8.3 4.4 5.2 81 1.4 W 15 17 8 9 1014.8 1014.8 0.0
26/10:00pm 8.6 4.7 5.3 80 1.5 WSW 15 19 8 10 1014.9 1014.9 0.0
26/09:30pm 9.6 4.9 5.2 74 2.0 W 19 24 10 13 1014.7 1014.7 0.0
26/09:00pm 9.6 5.7 5.2 74 2.0 W 15 22 8 12 1014.4 1014.4 0.0
26/08:30pm 9.6 6.4 5.2 74 2.0 W 11 15 6 8 1014.3 1014.3 0.0
26/08:00pm 10.1 6.6 5.3 72 2.2 W 13 17 7 9 1014.2 1014.2 0.0
26/07:30pm 10.2 6.2 4.9 69 2.4 WNW 15 20 8 11 1013.7 1013.7 0.0
26/07:00pm 10.9 7.2 4.7 65 2.8 WNW 13 19 7 10 1013.4 1013.4 0.0
26/06:30pm 11.2 8.0 5.1 66 2.8 W 11 17 6 9 1013.1 1013.1 0.0
26/06:00pm 12.2 8.5 4.5 59 3.5 W 13 17 7 9 1012.7 1012.7 0.0
26/05:30pm 13.7 8.1 3.2 49 4.7 W 22 37 12 20 1012.5 1012.5 0.0
26/05:00pm 14.4 7.3 3.7 48 4.9 W 30 41 16 22 1011.9 1011.9 0.0
26/04:30pm 15.1 8.5 2.0 41 5.8 W 26 41 14 22 1011.5 1011.5 0.0
26/04:00pm 15.8 9.7 4.8 48 5.2 WSW 26 35 14 19 1011.3 1011.3 0.0
26/03:30pm 15.3 7.9 4.9 50 4.9 WSW 33 48 18 26 1011.0 1011.1 0.0
26/03:00pm 15.8 9.4 5.1 49 5.1 W 28 37 15 20 1011.0 1011.1 0.0
26/02:30pm 16.8 10.4 5.4 47 5.5 W 28 41 15 22 1010.9 1011.0 0.0
26/02:00pm 16.2 10.4 6.1 51 4.9 W 26 37 14 20 1010.9 1011.0 0.0
26/01:30pm 15.9 9.7 6.0 52 4.8 WNW 28 39 15 21 1010.9 1011.0 0.0
26/01:00pm 17.4 11.0 5.4 45 5.8 WNW 28 43 15 23 1010.7 1010.8 0.0
26/12:30pm 17.4 12.8 6.5 48 5.4 WNW 20 28 11 15 1010.9 1011.0 0.0
26/12:00pm 16.4 10.4 5.1 47 5.4 W 26 37 14 20 1011.4 1011.4 0.0
26/11:30am 16.7 9.7 4.1 43 5.9 WNW 30 41 16 22 1011.8 1011.8 0.0
26/11:09am 16.6 9.9 3.4 41 6.1 NW 28 46 15 25 1011.8 1011.8 0.0
26/11:00am 16.6 9.3 2.5 38 6.4 NW 30 43 16 23 1011.8 1011.8 0.0
26/10:30am 17.5 11.6 2.0 35 7.0 NW 22 35 12 19 1011.9 1011.9 0.0
26/10:00am 16.4 10.8 3.4 42 6.0 N 22 30 12 16 1012.0 1012.0 0.0
26/09:30am 15.1 11.1 6.7 57 4.1 NNE 17 22 9 12 1012.3 1012.3 0.0
26/09:00am 13.1 9.5 6.9 66 3.0 NNE 15 19 8 10 1012.3 1012.3 0.2
26/08:30am 11.1 7.0 6.0 71 2.4 N 17 20 9 11 1012.4 1012.4 0.2
26/08:00am 11.4 7.7 6.1 70 2.5 N 15 20 8 11 1012.3 1012.3 0.2
26/07:30am 8.7 5.9 7.0 89 0.8 NNE 11 13 6 7 1012.3 1012.3 0.2
26/07:00am 5.5 2.9 4.3 92 0.5 N 7 7 4 4 1012.5 1012.5 0.2
26/06:30am 4.0 1.2 3.0 93 0.4 N 7 9 4 5 1012.7 1012.7 0.2
26/06:00am 3.2 0.8 2.4 94 0.3 N 4 9 2 5 1012.6 1012.6 0.2
26/05:30am 2.9 0.4 1.6 91 0.5 N 4 6 2 3 1012.4 1012.4 0.2
26/05:00am 3.7 0.8 2.5 92 0.5 N 7 9 4 5 1012.5 1012.5 0.2
26/04:30am 4.0 1.3 2.5 90 0.6 N 6 7 3 4 1012.5 1012.5 0.2

Other Formats:

Comma delimited format used in spreadsheet applications
http://www.bom.gov.au/fwo/IDS60801/IDS60801.95818.axf

JavaScript Object Notation format (JSON) in row-major order
http://www.bom.gov.au/fwo/IDS60801/IDS60801.95818.json